sensor_id;sensor_type;location;lat;lon;timestamp;P1;durP1;ratioP1;P2;durP2;ratioP2
1000;SDS011;489;47.806;12.858;2024-02-26T00:00:56;3.90;;;2.57;;
1000;SDS011;489;47.806;12.858;2024-02-26T00:02:58;5.27;;;4.20;;
1000;SDS011;489;47.806;12.858;2024-02-26T00:05:00;7.30;;;4.27;;
1000;SDS011;489;47.806;12.858;2024-02-26T00:07:02;6.23;;;4.27;;
1000;SDS011;489;47.806;12.858;2024-02-26T00:09:05;5.40;;;3.17;;
1000;SDS011;489;47.806;12.858;2024-02-26T00:11:08;5.07;;;3.77;;
1000;SDS011;489;47.806;12.858;2024-02-26T00:13:10;3.90;;;3.30;;
1000;SDS011;489;47.806;12.858;2024-02-26T00:15:13;5.00;;;3.47;;
1000;SDS011;489;47.806;12.858;2024-02-26T00:17:15;2.93;;;2.50;;
1000;SDS011;489;47.806;12.858;2024-02-26T00:19:17;3.33;;;2.30;;
1000;SDS011;489;47.806;12.858;2024-02-26T00:21:19;3.30;;;2.33;;
1000;SDS011;489;47.806;12.858;2024-02-26T00:23:22;4.10;;;2.80;;
1000;SDS011;489;47.806;12.858;2024-02-26T00:25:24;3.50;;;2.87;;
1000;SDS011;489;47.806;12.858;2024-02-26T00:27:28;2.67;;;2.43;;
1000;SDS011;489;47.806;12.858;2024-02-26T00:29:30;2.93;;;2.63;;
1000;SDS011;489;47.806;12.858;2024-02-26T00:31:33;3.07;;;2.50;;
1000;SDS011;489;47.806;12.858;2024-02-26T00:33:35;2.70;;;2.30;;
1000;SDS011;489;47.806;12.858;2024-02-26T00:35:36;2.90;;;2.27;;
1000;SDS011;489;47.806;12.858;2024-02-26T00:37:38;4.17;;;2.67;;
1000;SDS011;489;47.806;12.858;2024-02-26T00:39:40;3.47;;;2.27;;
1000;SDS011;489;47.806;12.858;2024-02-26T00:41:42;2.03;;;1.83;;
1000;SDS011;489;47.806;12.858;2024-02-26T00:43:44;1.83;;;1.63;;
1000;SDS011;489;47.806;12.858;2024-02-26T00:45:48;2.80;;;1.83;;
1000;SDS011;489;47.806;12.858;2024-02-26T00:47:49;2.07;;;1.87;;
1000;SDS011;489;47.806;12.858;2024-02-26T00:49:51;1.70;;;1.40;;
1000;SDS011;489;47.806;12.858;2024-02-26T00:51:52;1.70;;;1.60;;
1000;SDS011;489;47.806;12.858;2024-02-26T00:53:54;2.37;;;1.73;;
1000;SDS011;489;47.806;12.858;2024-02-26T00:55:56;2.67;;;2.07;;
1000;SDS011;489;47.806;12.858;2024-02-26T00:57:59;2.30;;;1.60;;
1000;SDS011;489;47.806;12.858;2024-02-26T01:00:03;2.20;;;1.90;;
1000;SDS011;489;47.806;12.858;2024-02-26T01:02:05;3.20;;;2.33;;
1000;SDS011;489;47.806;12.858;2024-02-26T01:04:07;2.63;;;1.97;;
1000;SDS011;489;47.806;12.858;2024-02-26T01:06:27;2.47;;;1.70;;
1000;SDS011;489;47.806;12.858;2024-02-26T01:08:29;3.00;;;2.20;;
1000;SDS011;489;47.806;12.858;2024-02-26T01:10:31;3.47;;;2.20;;
1000;SDS011;489;47.806;12.858;2024-02-26T01:12:34;3.03;;;2.10;;
1000;SDS011;489;47.806;12.858;2024-02-26T01:14:36;1.87;;;1.70;;
1000;SDS011;489;47.806;12.858;2024-02-26T01:16:39;2.50;;;1.80;;
1000;SDS011;489;47.806;12.858;2024-02-26T01:18:40;1.67;;;1.57;;
1000;SDS011;489;47.806;12.858;2024-02-26T01:20:42;3.83;;;2.67;;
1000;SDS011;489;47.806;12.858;2024-02-26T01:22:44;2.90;;;2.60;;
1000;SDS011;489;47.806;12.858;2024-02-26T01:24:46;2.40;;;2.17;;
1000;SDS011;489;47.806;12.858;2024-02-26T01:26:48;2.07;;;1.87;;
1000;SDS011;489;47.806;12.858;2024-02-26T01:28:49;2.27;;;1.90;;
1000;SDS011;489;47.806;12.858;2024-02-26T01:30:51;2.43;;;1.80;;
1000;SDS011;489;47.806;12.858;2024-02-26T01:32:54;2.67;;;1.63;;
1000;SDS011;489;47.806;12.858;2024-02-26T01:34:56;2.17;;;1.93;;
1000;SDS011;489;47.806;12.858;2024-02-26T01:36:57;1.63;;;1.53;;
1000;SDS011;489;47.806;12.858;2024-02-26T01:38:59;2.67;;;1.70;;
1000;SDS011;489;47.806;12.858;2024-02-26T01:41:03;2.27;;;2.07;;
1000;SDS011;489;47.806;12.858;2024-02-26T01:43:05;2.20;;;1.70;;
1000;SDS011;489;47.806;12.858;2024-02-26T01:45:08;2.70;;;1.87;;
1000;SDS011;489;47.806;12.858;2024-02-26T01:47:16;1.83;;;1.50;;
1000;SDS011;489;47.806;12.858;2024-02-26T01:49:19;2.07;;;1.40;;
1000;SDS011;489;47.806;12.858;2024-02-26T01:51:38;2.20;;;1.60;;
1000;SDS011;489;47.806;12.858;2024-02-26T01:53:41;2.27;;;1.57;;
1000;SDS011;489;47.806;12.858;2024-02-26T01:55:43;1.37;;;1.27;;
1000;SDS011;489;47.806;12.858;2024-02-26T01:57:46;1.80;;;1.57;;
1000;SDS011;489;47.806;12.858;2024-02-26T01:59:48;1.57;;;1.30;;
1000;SDS011;489;47.806;12.858;2024-02-26T02:01:52;1.90;;;1.43;;
1000;SDS011;489;47.806;12.858;2024-02-26T02:03:58;1.60;;;1.33;;
1000;SDS011;489;47.806;12.858;2024-02-26T02:06:01;2.27;;;1.70;;
1000;SDS011;489;47.806;12.858;2024-02-26T02:08:03;1.70;;;1.60;;
1000;SDS011;489;47.806;12.858;2024-02-26T02:10:06;2.80;;;1.60;;
1000;SDS011;489;47.806;12.858;2024-02-26T02:12:10;1.23;;;1.13;;
1000;SDS011;489;47.806;12.858;2024-02-26T02:14:12;1.57;;;1.33;;
1000;SDS011;489;47.806;12.858;2024-02-26T02:16:14;1.63;;;1.30;;
1000;SDS011;489;47.806;12.858;2024-02-26T02:18:16;1.63;;;1.20;;
1000;SDS011;489;47.806;12.858;2024-02-26T02:20:17;1.87;;;1.30;;
1000;SDS011;489;47.806;12.858;2024-02-26T02:22:21;1.50;;;1.40;;
1000;SDS011;489;47.806;12.858;2024-02-26T02:24:22;2.20;;;1.30;;
1000;SDS011;489;47.806;12.858;2024-02-26T02:26:25;1.80;;;1.60;;
1000;SDS011;489;47.806;12.858;2024-02-26T02:28:27;1.50;;;1.40;;
1000;SDS011;489;47.806;12.858;2024-02-26T02:30:29;1.20;;;1.10;;
1000;SDS011;489;47.806;12.858;2024-02-26T02:32:31;2.03;;;1.57;;
1000;SDS011;489;47.806;12.858;2024-02-26T02:34:36;1.70;;;1.60;;
1000;SDS011;489;47.806;12.858;2024-02-26T02:36:48;2.00;;;1.43;;
1000;SDS011;489;47.806;12.858;2024-02-26T02:38:51;2.37;;;1.57;;
1000;SDS011;489;47.806;12.858;2024-02-26T02:40:54;3.20;;;1.73;;
1000;SDS011;489;47.806;12.858;2024-02-26T02:42:56;1.50;;;1.37;;
1000;SDS011;489;47.806;12.858;2024-02-26T02:44:59;2.37;;;1.80;;
1000;SDS011;489;47.806;12.858;2024-02-26T02:47:01;1.83;;;1.60;;
1000;SDS011;489;47.806;12.858;2024-02-26T02:49:02;1.80;;;1.50;;
1000;SDS011;489;47.806;12.858;2024-02-26T02:51:04;1.90;;;1.33;;
1000;SDS011;489;47.806;12.858;2024-02-26T02:53:06;2.60;;;1.40;;
1000;SDS011;489;47.806;12.858;2024-02-26T02:55:09;1.20;;;1.10;;
1000;SDS011;489;47.806;12.858;2024-02-26T02:57:11;1.10;;;1.00;;
1000;SDS011;489;47.806;12.858;2024-02-26T02:59:13;1.37;;;1.00;;
1000;SDS011;489;47.806;12.858;2024-02-26T03:01:15;4.33;;;1.60;;
1000;SDS011;489;47.806;12.858;2024-02-26T03:03:17;1.70;;;1.43;;
1000;SDS011;489;47.806;12.858;2024-02-26T03:05:17;1.97;;;1.50;;
1000;SDS011;489;47.806;12.858;2024-02-26T03:07:20;2.77;;;1.90;;
1000;SDS011;489;47.806;12.858;2024-02-26T03:09:22;2.30;;;1.70;;
1000;SDS011;489;47.806;12.858;2024-02-26T03:11:25;1.50;;;1.40;;
1000;SDS011;489;47.806;12.858;2024-02-26T03:13:27;1.90;;;1.60;;
1000;SDS011;489;47.806;12.858;2024-02-26T03:15:29;3.10;;;1.60;;
1000;SDS011;489;47.806;12.858;2024-02-26T03:17:31;1.30;;;1.20;;
1000;SDS011;489;47.806;12.858;2024-02-26T03:19:33;1.10;;;1.00;;
1000;SDS011;489;47.806;12.858;2024-02-26T03:21:34;1.40;;;1.20;;
1000;SDS011;489;47.806;12.858;2024-02-26T03:23:35;1.70;;;0.93;;
1000;SDS011;489;47.806;12.858;2024-02-26T03:25:37;1.73;;;1.30;;
1000;SDS011;489;47.806;12.858;2024-02-26T03:27:40;1.17;;;1.07;;
1000;SDS011;489;47.806;12.858;2024-02-26T03:29:42;1.10;;;0.97;;
1000;SDS011;489;47.806;12.858;2024-02-26T03:31:44;1.30;;;0.90;;
1000;SDS011;489;47.806;12.858;2024-02-26T03:33:46;1.43;;;1.20;;
1000;SDS011;489;47.806;12.858;2024-02-26T03:35:48;2.00;;;1.43;;
1000;SDS011;489;47.806;12.858;2024-02-26T03:37:50;3.13;;;1.37;;
1000;SDS011;489;47.806;12.858;2024-02-26T03:39:52;1.60;;;1.27;;
1000;SDS011;489;47.806;12.858;2024-02-26T03:41:53;1.47;;;1.30;;
1000;SDS011;489;47.806;12.858;2024-02-26T03:43:57;1.70;;;1.20;;
1000;SDS011;489;47.806;12.858;2024-02-26T03:45:59;1.40;;;1.30;;
1000;SDS011;489;47.806;12.858;2024-02-26T03:48:00;1.33;;;1.20;;
1000;SDS011;489;47.806;12.858;2024-02-26T03:50:03;1.60;;;1.10;;
1000;SDS011;489;47.806;12.858;2024-02-26T03:52:24;2.03;;;1.10;;
1000;SDS011;489;47.806;12.858;2024-02-26T03:54:26;1.40;;;1.00;;
1000;SDS011;489;47.806;12.858;2024-02-26T03:56:28;1.53;;;1.10;;
1000;SDS011;489;47.806;12.858;2024-02-26T03:58:29;1.20;;;1.10;;
1000;SDS011;489;47.806;12.858;2024-02-26T04:00:33;1.10;;;0.87;;
1000;SDS011;489;47.806;12.858;2024-02-26T04:02:35;1.10;;;0.90;;
1000;SDS011;489;47.806;12.858;2024-02-26T04:04:37;1.17;;;0.93;;
1000;SDS011;489;47.806;12.858;2024-02-26T04:06:39;0.90;;;0.80;;
1000;SDS011;489;47.806;12.858;2024-02-26T04:08:40;1.10;;;1.00;;
1000;SDS011;489;47.806;12.858;2024-02-26T04:10:41;1.30;;;1.07;;
1000;SDS011;489;47.806;12.858;2024-02-26T04:12:43;2.07;;;1.13;;
1000;SDS011;489;47.806;12.858;2024-02-26T04:14:46;1.30;;;1.20;;
1000;SDS011;489;47.806;12.858;2024-02-26T04:16:49;1.47;;;1.10;;
1000;SDS011;489;47.806;12.858;2024-02-26T04:18:53;1.77;;;1.00;;
1000;SDS011;489;47.806;12.858;2024-02-26T04:20:55;3.50;;;1.30;;
1000;SDS011;489;47.806;12.858;2024-02-26T04:22:58;1.87;;;1.33;;
1000;SDS011;489;47.806;12.858;2024-02-26T04:25:00;1.30;;;1.10;;
1000;SDS011;489;47.806;12.858;2024-02-26T04:27:02;2.30;;;1.10;;
1000;SDS011;489;47.806;12.858;2024-02-26T04:29:04;4.63;;;2.63;;
1000;SDS011;489;47.806;12.858;2024-02-26T04:31:04;5.10;;;2.30;;
1000;SDS011;489;47.806;12.858;2024-02-26T04:33:08;3.87;;;2.33;;
1000;SDS011;489;47.806;12.858;2024-02-26T04:35:10;6.60;;;2.53;;
1000;SDS011;489;47.806;12.858;2024-02-26T04:37:11;6.17;;;2.60;;
1000;SDS011;489;47.806;12.858;2024-02-26T04:39:13;4.83;;;2.37;;
1000;SDS011;489;47.806;12.858;2024-02-26T04:41:15;6.00;;;2.60;;
1000;SDS011;489;47.806;12.858;2024-02-26T04:43:17;4.00;;;2.57;;
1000;SDS011;489;47.806;12.858;2024-02-26T04:45:19;3.50;;;2.57;;
1000;SDS011;489;47.806;12.858;2024-02-26T04:47:21;3.87;;;2.40;;
1000;SDS011;489;47.806;12.858;2024-02-26T04:49:24;4.00;;;2.30;;
1000;SDS011;489;47.806;12.858;2024-02-26T04:51:26;5.43;;;3.13;;
1000;SDS011;489;47.806;12.858;2024-02-26T04:53:28;6.43;;;3.43;;
1000;SDS011;489;47.806;12.858;2024-02-26T04:55:30;4.33;;;2.83;;
1000;SDS011;489;47.806;12.858;2024-02-26T04:57:32;4.87;;;4.00;;
1000;SDS011;489;47.806;12.858;2024-02-26T04:59:34;6.40;;;4.27;;
1000;SDS011;489;47.806;12.858;2024-02-26T05:01:37;4.37;;;3.10;;
1000;SDS011;489;47.806;12.858;2024-02-26T05:03:39;5.03;;;3.30;;
1000;SDS011;489;47.806;12.858;2024-02-26T05:05:42;5.47;;;3.40;;
1000;SDS011;489;47.806;12.858;2024-02-26T05:07:45;5.60;;;3.80;;
1000;SDS011;489;47.806;12.858;2024-02-26T05:09:46;6.83;;;3.90;;
1000;SDS011;489;47.806;12.858;2024-02-26T05:11:50;5.60;;;3.90;;
1000;SDS011;489;47.806;12.858;2024-02-26T05:13:52;7.70;;;3.77;;
1000;SDS011;489;47.806;12.858;2024-02-26T05:15:54;5.10;;;3.77;;
1000;SDS011;489;47.806;12.858;2024-02-26T05:17:55;8.70;;;3.60;;
1000;SDS011;489;47.806;12.858;2024-02-26T05:19:57;5.30;;;3.03;;
1000;SDS011;489;47.806;12.858;2024-02-26T05:22:00;4.07;;;2.80;;
1000;SDS011;489;47.806;12.858;2024-02-26T05:24:02;3.90;;;3.03;;
1000;SDS011;489;47.806;12.858;2024-02-26T05:26:04;5.07;;;3.27;;
1000;SDS011;489;47.806;12.858;2024-02-26T05:28:06;4.70;;;3.20;;
1000;SDS011;489;47.806;12.858;2024-02-26T05:30:08;5.63;;;3.60;;
1000;SDS011;489;47.806;12.858;2024-02-26T05:32:10;4.30;;;3.37;;
1000;SDS011;489;47.806;12.858;2024-02-26T05:34:12;4.30;;;2.80;;
1000;SDS011;489;47.806;12.858;2024-02-26T05:36:17;4.63;;;3.00;;
1000;SDS011;489;47.806;12.858;2024-02-26T05:38:22;3.47;;;3.17;;
1000;SDS011;489;47.806;12.858;2024-02-26T05:40:24;5.77;;;2.93;;
1000;SDS011;489;47.806;12.858;2024-02-26T05:42:26;4.20;;;3.10;;
1000;SDS011;489;47.806;12.858;2024-02-26T05:44:27;4.30;;;2.80;;
1000;SDS011;489;47.806;12.858;2024-02-26T05:46:29;3.23;;;2.70;;
1000;SDS011;489;47.806;12.858;2024-02-26T05:48:31;3.63;;;3.03;;
1000;SDS011;489;47.806;12.858;2024-02-26T05:50:33;3.90;;;3.13;;
1000;SDS011;489;47.806;12.858;2024-02-26T05:52:34;3.43;;;2.40;;
1000;SDS011;489;47.806;12.858;2024-02-26T05:54:38;2.80;;;2.37;;
1000;SDS011;489;47.806;12.858;2024-02-26T05:56:39;3.90;;;2.80;;
1000;SDS011;489;47.806;12.858;2024-02-26T05:58:41;4.20;;;2.50;;
1000;SDS011;489;47.806;12.858;2024-02-26T06:00:43;3.70;;;2.40;;
1000;SDS011;489;47.806;12.858;2024-02-26T06:02:45;3.43;;;2.70;;
1000;SDS011;489;47.806;12.858;2024-02-26T06:04:47;4.57;;;2.87;;
1000;SDS011;489;47.806;12.858;2024-02-26T06:06:48;7.33;;;3.80;;
1000;SDS011;489;47.806;12.858;2024-02-26T06:08:50;4.60;;;3.10;;
1000;SDS011;489;47.806;12.858;2024-02-26T06:10:53;6.63;;;3.40;;
1000;SDS011;489;47.806;12.858;2024-02-26T06:12:55;4.57;;;3.10;;
1000;SDS011;489;47.806;12.858;2024-02-26T06:14:57;4.67;;;2.80;;
1000;SDS011;489;47.806;12.858;2024-02-26T06:17:01;3.67;;;2.87;;
1000;SDS011;489;47.806;12.858;2024-02-26T06:19:03;4.47;;;3.10;;
1000;SDS011;489;47.806;12.858;2024-02-26T06:21:08;3.57;;;2.83;;
1000;SDS011;489;47.806;12.858;2024-02-26T06:23:10;5.50;;;3.53;;
1000;SDS011;489;47.806;12.858;2024-02-26T06:25:12;4.80;;;3.30;;
1000;SDS011;489;47.806;12.858;2024-02-26T06:27:15;2.80;;;2.07;;
1000;SDS011;489;47.806;12.858;2024-02-26T06:29:36;4.73;;;4.23;;
1000;SDS011;489;47.806;12.858;2024-02-26T06:31:37;4.07;;;3.10;;
1000;SDS011;489;47.806;12.858;2024-02-26T06:33:40;3.13;;;2.83;;
1000;SDS011;489;47.806;12.858;2024-02-26T06:35:42;5.90;;;3.60;;
1000;SDS011;489;47.806;12.858;2024-02-26T06:37:44;5.80;;;3.50;;
1000;SDS011;489;47.806;12.858;2024-02-26T06:39:45;3.97;;;2.93;;
1000;SDS011;489;47.806;12.858;2024-02-26T06:41:47;3.27;;;2.40;;
1000;SDS011;489;47.806;12.858;2024-02-26T06:43:51;2.53;;;2.27;;
1000;SDS011;489;47.806;12.858;2024-02-26T06:45:53;2.30;;;2.07;;
1000;SDS011;489;47.806;12.858;2024-02-26T06:47:55;2.70;;;2.30;;
1000;SDS011;489;47.806;12.858;2024-02-26T06:49:57;3.93;;;2.53;;
1000;SDS011;489;47.806;12.858;2024-02-26T06:51:59;4.77;;;2.13;;
1000;SDS011;489;47.806;12.858;2024-02-26T06:54:01;2.20;;;1.93;;
1000;SDS011;489;47.806;12.858;2024-02-26T06:56:03;2.07;;;1.73;;
1000;SDS011;489;47.806;12.858;2024-02-26T06:58:06;3.03;;;2.10;;
1000;SDS011;489;47.806;12.858;2024-02-26T07:00:09;3.03;;;2.00;;
1000;SDS011;489;47.806;12.858;2024-02-26T07:02:14;4.50;;;1.87;;
1000;SDS011;489;47.806;12.858;2024-02-26T07:04:17;2.60;;;1.60;;
1000;SDS011;489;47.806;12.858;2024-02-26T07:06:19;2.67;;;1.83;;
1000;SDS011;489;47.806;12.858;2024-02-26T07:08:20;1.93;;;1.60;;
1000;SDS011;489;47.806;12.858;2024-02-26T07:10:22;1.80;;;1.53;;
1000;SDS011;489;47.806;12.858;2024-02-26T07:12:24;2.33;;;1.50;;
1000;SDS011;489;47.806;12.858;2024-02-26T07:14:26;4.07;;;1.40;;
1000;SDS011;489;47.806;12.858;2024-02-26T07:16:29;1.80;;;1.30;;
1000;SDS011;489;47.806;12.858;2024-02-26T07:18:31;1.93;;;1.30;;
1000;SDS011;489;47.806;12.858;2024-02-26T07:20:33;1.60;;;1.13;;
1000;SDS011;489;47.806;12.858;2024-02-26T07:22:35;1.30;;;1.20;;
1000;SDS011;489;47.806;12.858;2024-02-26T07:24:38;1.50;;;1.17;;
1000;SDS011;489;47.806;12.858;2024-02-26T07:26:40;1.67;;;1.27;;
1000;SDS011;489;47.806;12.858;2024-02-26T07:28:41;3.30;;;1.50;;
1000;SDS011;489;47.806;12.858;2024-02-26T07:30:43;2.00;;;1.47;;
1000;SDS011;489;47.806;12.858;2024-02-26T07:32:46;2.07;;;1.43;;
1000;SDS011;489;47.806;12.858;2024-02-26T07:34:48;1.63;;;1.10;;
1000;SDS011;489;47.806;12.858;2024-02-26T07:36:50;1.30;;;1.17;;
1000;SDS011;489;47.806;12.858;2024-02-26T07:38:52;1.90;;;1.37;;
1000;SDS011;489;47.806;12.858;2024-02-26T07:40:54;2.87;;;2.13;;
1000;SDS011;489;47.806;12.858;2024-02-26T07:42:57;2.20;;;1.70;;
1000;SDS011;489;47.806;12.858;2024-02-26T07:44:59;2.30;;;1.70;;
1000;SDS011;489;47.806;12.858;2024-02-26T07:47:01;2.20;;;1.70;;
1000;SDS011;489;47.806;12.858;2024-02-26T07:49:04;3.57;;;1.57;;
1000;SDS011;489;47.806;12.858;2024-02-26T07:51:06;4.07;;;2.00;;
1000;SDS011;489;47.806;12.858;2024-02-26T07:53:08;3.90;;;1.70;;
1000;SDS011;489;47.806;12.858;2024-02-26T07:55:10;2.00;;;1.53;;
1000;SDS011;489;47.806;12.858;2024-02-26T07:57:11;4.70;;;1.60;;
1000;SDS011;489;47.806;12.858;2024-02-26T07:59:15;2.70;;;1.40;;
1000;SDS011;489;47.806;12.858;2024-02-26T08:01:17;2.70;;;1.87;;
1000;SDS011;489;47.806;12.858;2024-02-26T08:03:18;2.63;;;1.70;;
1000;SDS011;489;47.806;12.858;2024-02-26T08:05:22;1.77;;;1.50;;
1000;SDS011;489;47.806;12.858;2024-02-26T08:07:24;2.07;;;1.77;;
1000;SDS011;489;47.806;12.858;2024-02-26T08:09:25;2.03;;;1.60;;
1000;SDS011;489;47.806;12.858;2024-02-26T08:11:28;2.87;;;1.97;;
1000;SDS011;489;47.806;12.858;2024-02-26T08:13:30;2.20;;;1.40;;
1000;SDS011;489;47.806;12.858;2024-02-26T08:15:32;1.80;;;1.40;;
1000;SDS011;489;47.806;12.858;2024-02-26T08:17:35;1.60;;;1.40;;
1000;SDS011;489;47.806;12.858;2024-02-26T08:19:36;3.53;;;1.87;;
1000;SDS011;489;47.806;12.858;2024-02-26T08:21:40;3.20;;;2.00;;
1000;SDS011;489;47.806;12.858;2024-02-26T08:23:43;2.53;;;1.77;;
1000;SDS011;489;47.806;12.858;2024-02-26T08:25:44;1.80;;;1.50;;
1000;SDS011;489;47.806;12.858;2024-02-26T08:27:46;2.10;;;1.43;;
1000;SDS011;489;47.806;12.858;2024-02-26T08:29:47;1.77;;;1.40;;
1000;SDS011;489;47.806;12.858;2024-02-26T08:31:49;2.23;;;1.70;;
1000;SDS011;489;47.806;12.858;2024-02-26T08:33:51;2.60;;;1.90;;
1000;SDS011;489;47.806;12.858;2024-02-26T08:35:53;3.83;;;1.60;;
1000;SDS011;489;47.806;12.858;2024-02-26T08:37:56;1.87;;;1.57;;
1000;SDS011;489;47.806;12.858;2024-02-26T08:39:58;2.60;;;1.57;;
1000;SDS011;489;47.806;12.858;2024-02-26T08:42:00;1.90;;;1.73;;
1000;SDS011;489;47.806;12.858;2024-02-26T08:44:02;2.20;;;1.70;;
1000;SDS011;489;47.806;12.858;2024-02-26T08:46:08;1.50;;;1.40;;
1000;SDS011;489;47.806;12.858;2024-02-26T08:48:10;1.80;;;1.70;;
1000;SDS011;489;47.806;12.858;2024-02-26T08:50:12;1.40;;;1.30;;
1000;SDS011;489;47.806;12.858;2024-02-26T08:52:14;2.47;;;1.93;;
1000;SDS011;489;47.806;12.858;2024-02-26T08:54:17;1.73;;;1.63;;
1000;SDS011;489;47.806;12.858;2024-02-26T08:56:19;2.43;;;1.53;;
1000;SDS011;489;47.806;12.858;2024-02-26T08:58:21;1.87;;;1.67;;
1000;SDS011;489;47.806;12.858;2024-02-26T09:00:23;3.00;;;2.10;;
1000;SDS011;489;47.806;12.858;2024-02-26T09:02:25;2.50;;;1.57;;
1000;SDS011;489;47.806;12.858;2024-02-26T09:04:27;1.40;;;1.30;;
1000;SDS011;489;47.806;12.858;2024-02-26T09:06:29;1.50;;;1.40;;
1000;SDS011;489;47.806;12.858;2024-02-26T09:08:30;2.77;;;1.80;;
1000;SDS011;489;47.806;12.858;2024-02-26T09:10:33;1.93;;;1.50;;
1000;SDS011;489;47.806;12.858;2024-02-26T09:12:35;1.57;;;1.47;;
1000;SDS011;489;47.806;12.858;2024-02-26T09:14:37;1.70;;;1.60;;
1000;SDS011;489;47.806;12.858;2024-02-26T09:16:38;1.83;;;1.57;;
1000;SDS011;489;47.806;12.858;2024-02-26T09:18:40;3.50;;;1.90;;
1000;SDS011;489;47.806;12.858;2024-02-26T09:20:42;1.77;;;1.40;;
1000;SDS011;489;47.806;12.858;2024-02-26T09:22:44;2.87;;;1.63;;
1000;SDS011;489;47.806;12.858;2024-02-26T09:24:46;2.70;;;1.70;;
1000;SDS011;489;47.806;12.858;2024-02-26T09:26:49;2.20;;;1.70;;
1000;SDS011;489;47.806;12.858;2024-02-26T09:28:51;3.17;;;1.80;;
1000;SDS011;489;47.806;12.858;2024-02-26T09:30:53;3.43;;;1.50;;
1000;SDS011;489;47.806;12.858;2024-02-26T09:32:55;1.83;;;1.50;;
1000;SDS011;489;47.806;12.858;2024-02-26T09:34:57;2.67;;;2.20;;
1000;SDS011;489;47.806;12.858;2024-02-26T09:36:59;2.50;;;2.00;;
1000;SDS011;489;47.806;12.858;2024-02-26T09:39:01;2.10;;;1.60;;
1000;SDS011;489;47.806;12.858;2024-02-26T09:41:03;4.47;;;1.90;;
1000;SDS011;489;47.806;12.858;2024-02-26T09:43:06;2.00;;;1.70;;
1000;SDS011;489;47.806;12.858;2024-02-26T09:45:11;2.13;;;1.93;;
1000;SDS011;489;47.806;12.858;2024-02-26T09:47:19;2.87;;;2.67;;
1000;SDS011;489;47.806;12.858;2024-02-26T09:49:21;2.70;;;1.77;;
1000;SDS011;489;47.806;12.858;2024-02-26T09:51:25;1.63;;;1.40;;
1000;SDS011;489;47.806;12.858;2024-02-26T09:53:26;1.77;;;1.30;;
1000;SDS011;489;47.806;12.858;2024-02-26T09:55:28;1.77;;;1.67;;
1000;SDS011;489;47.806;12.858;2024-02-26T09:57:30;1.97;;;1.53;;
1000;SDS011;489;47.806;12.858;2024-02-26T09:59:35;1.90;;;1.70;;
1000;SDS011;489;47.806;12.858;2024-02-26T10:01:41;2.63;;;1.53;;
1000;SDS011;489;47.806;12.858;2024-02-26T10:03:44;2.93;;;1.50;;
1000;SDS011;489;47.806;12.858;2024-02-26T10:05:50;2.40;;;1.50;;
1000;SDS011;489;47.806;12.858;2024-02-26T10:07:56;1.70;;;1.40;;
1000;SDS011;489;47.806;12.858;2024-02-26T10:09:58;1.83;;;1.50;;
1000;SDS011;489;47.806;12.858;2024-02-26T10:12:00;1.60;;;1.30;;
1000;SDS011;489;47.806;12.858;2024-02-26T10:14:02;1.40;;;1.30;;
1000;SDS011;489;47.806;12.858;2024-02-26T10:16:06;2.53;;;1.40;;
1000;SDS011;489;47.806;12.858;2024-02-26T10:18:08;1.80;;;1.60;;
1000;SDS011;489;47.806;12.858;2024-02-26T10:20:11;2.27;;;1.70;;
1000;SDS011;489;47.806;12.858;2024-02-26T10:22:13;1.40;;;1.30;;
1000;SDS011;489;47.806;12.858;2024-02-26T10:24:15;2.00;;;1.70;;
1000;SDS011;489;47.806;12.858;2024-02-26T10:26:17;2.10;;;1.80;;
1000;SDS011;489;47.806;12.858;2024-02-26T10:28:19;2.20;;;1.70;;
1000;SDS011;489;47.806;12.858;2024-02-26T10:30:21;3.87;;;1.53;;
1000;SDS011;489;47.806;12.858;2024-02-26T10:32:24;2.13;;;1.70;;
1000;SDS011;489;47.806;12.858;2024-02-26T10:34:26;2.27;;;2.07;;
1000;SDS011;489;47.806;12.858;2024-02-26T10:36:33;3.30;;;1.80;;
1000;SDS011;489;47.806;12.858;2024-02-26T10:38:35;2.50;;;1.73;;
1000;SDS011;489;47.806;12.858;2024-02-26T10:40:37;4.03;;;2.57;;
1000;SDS011;489;47.806;12.858;2024-02-26T10:42:39;2.90;;;1.90;;
1000;SDS011;489;47.806;12.858;2024-02-26T10:44:42;2.00;;;1.80;;
1000;SDS011;489;47.806;12.858;2024-02-26T10:46:46;2.10;;;1.90;;
1000;SDS011;489;47.806;12.858;2024-02-26T10:48:51;2.63;;;2.43;;
1000;SDS011;489;47.806;12.858;2024-02-26T10:50:53;2.93;;;1.70;;
1000;SDS011;489;47.806;12.858;2024-02-26T10:52:56;2.10;;;1.90;;
1000;SDS011;489;47.806;12.858;2024-02-26T10:55:00;2.80;;;2.03;;
1000;SDS011;489;47.806;12.858;2024-02-26T10:57:02;2.20;;;2.00;;
1000;SDS011;489;47.806;12.858;2024-02-26T10:59:05;2.03;;;1.87;;
1000;SDS011;489;47.806;12.858;2024-02-26T11:01:09;2.20;;;1.63;;
1000;SDS011;489;47.806;12.858;2024-02-26T11:03:11;1.87;;;1.70;;
1000;SDS011;489;47.806;12.858;2024-02-26T11:05:15;2.03;;;1.30;;
1000;SDS011;489;47.806;12.858;2024-02-26T11:07:18;1.57;;;1.47;;
1000;SDS011;489;47.806;12.858;2024-02-26T11:09:20;1.33;;;1.23;;
1000;SDS011;489;47.806;12.858;2024-02-26T11:11:23;2.80;;;1.33;;
1000;SDS011;489;47.806;12.858;2024-02-26T11:13:26;2.50;;;1.97;;
1000;SDS011;489;47.806;12.858;2024-02-26T11:15:30;1.83;;;1.50;;
1000;SDS011;489;47.806;12.858;2024-02-26T11:17:33;1.90;;;1.70;;
1000;SDS011;489;47.806;12.858;2024-02-26T11:19:36;2.30;;;1.70;;
1000;SDS011;489;47.806;12.858;2024-02-26T11:21:43;2.53;;;1.70;;
1000;SDS011;489;47.806;12.858;2024-02-26T11:23:46;1.47;;;1.37;;
1000;SDS011;489;47.806;12.858;2024-02-26T11:25:47;1.97;;;1.60;;
1000;SDS011;489;47.806;12.858;2024-02-26T11:27:50;2.80;;;2.10;;
1000;SDS011;489;47.806;12.858;2024-02-26T11:29:57;2.60;;;1.70;;
1000;SDS011;489;47.806;12.858;2024-02-26T11:32:01;2.13;;;1.60;;
1000;SDS011;489;47.806;12.858;2024-02-26T11:34:02;3.10;;;2.27;;
1000;SDS011;489;47.806;12.858;2024-02-26T11:36:07;2.97;;;2.30;;
1000;SDS011;489;47.806;12.858;2024-02-26T11:38:12;2.50;;;1.90;;
1000;SDS011;489;47.806;12.858;2024-02-26T11:40:19;1.93;;;1.53;;
1000;SDS011;489;47.806;12.858;2024-02-26T11:42:22;1.33;;;1.20;;
1000;SDS011;489;47.806;12.858;2024-02-26T11:44:31;2.57;;;1.40;;
1000;SDS011;489;47.806;12.858;2024-02-26T11:46:33;1.97;;;1.57;;
1000;SDS011;489;47.806;12.858;2024-02-26T11:48:40;1.40;;;1.30;;
1000;SDS011;489;47.806;12.858;2024-02-26T11:50:41;1.80;;;1.40;;
1000;SDS011;489;47.806;12.858;2024-02-26T11:55:31;3.50;;;1.40;;
1000;SDS011;489;47.806;12.858;2024-02-26T11:57:38;1.57;;;0.87;;
1000;SDS011;489;47.806;12.858;2024-02-26T11:59:40;1.47;;;1.03;;
1000;SDS011;489;47.806;12.858;2024-02-26T12:01:43;1.20;;;0.80;;
1000;SDS011;489;47.806;12.858;2024-02-26T12:03:47;1.23;;;1.13;;
1000;SDS011;489;47.806;12.858;2024-02-26T12:05:49;1.97;;;1.20;;
1000;SDS011;489;47.806;12.858;2024-02-26T12:07:52;1.00;;;0.90;;
1000;SDS011;489;47.806;12.858;2024-02-26T12:12:18;1.77;;;1.30;;
1000;SDS011;489;47.806;12.858;2024-02-26T12:14:24;2.03;;;1.20;;
1000;SDS011;489;47.806;12.858;2024-02-26T12:16:34;1.40;;;1.13;;
1000;SDS011;489;47.806;12.858;2024-02-26T12:18:37;1.47;;;1.23;;
1000;SDS011;489;47.806;12.858;2024-02-26T12:20:41;1.20;;;1.03;;
1000;SDS011;489;47.806;12.858;2024-02-26T12:22:45;1.90;;;1.00;;
1000;SDS011;489;47.806;12.858;2024-02-26T12:24:46;1.33;;;1.10;;
1000;SDS011;489;47.806;12.858;2024-02-26T12:26:49;1.60;;;1.00;;
1000;SDS011;489;47.806;12.858;2024-02-26T12:28:51;1.00;;;0.70;;
1000;SDS011;489;47.806;12.858;2024-02-26T12:30:53;1.33;;;1.00;;
1000;SDS011;489;47.806;12.858;2024-02-26T12:32:55;1.70;;;0.90;;
1000;SDS011;489;47.806;12.858;2024-02-26T12:34:58;1.27;;;1.10;;
1000;SDS011;489;47.806;12.858;2024-02-26T12:37:00;3.60;;;1.23;;
1000;SDS011;489;47.806;12.858;2024-02-26T12:39:01;1.37;;;1.13;;
1000;SDS011;489;47.806;12.858;2024-02-26T12:41:06;1.00;;;0.90;;
1000;SDS011;489;47.806;12.858;2024-02-26T12:43:09;1.70;;;1.17;;
1000;SDS011;489;47.806;12.858;2024-02-26T12:45:13;1.50;;;1.17;;
1000;SDS011;489;47.806;12.858;2024-02-26T12:47:16;1.40;;;1.10;;